Time;durP1;ratioP1;P1;durP2;ratioP2;P2;SDS_P1;SDS_P2;PMS_P1;PMS_P2;Temp;Humidity;BMP_temperature;BMP_pressure;BME280_temperature;BME280_humidity;BME280_pressure;Samples;Min_cycle;Max_cycle;Signal;HPM_P1;HPM_P2
2024/02/22 00:00:05;;;;;;;5.20;4.57;;;8.80;99.90;;;;;;796866;178;26457;-78
2024/02/22 00:02:33;;;;;;;6.30;4.20;;;8.80;99.90;;;;;;806326;175;26467;-80
2024/02/22 00:04:59;;;;;;;6.23;4.33;;;8.80;99.90;;;;;;802993;176;27028;-75
2024/02/22 00:07:25;;;;;;;6.27;4.10;;;8.90;99.90;;;;;;801769;176;26458;-78
2024/02/22 00:09:53;;;;;;;4.63;3.53;;;8.90;99.90;;;;;;804661;176;26461;-79
2024/02/22 00:12:18;;;;;;;5.43;3.30;;;8.90;99.90;;;;;;808811;177;26508;-78
2024/02/22 00:14:45;;;;;;;4.37;3.80;;;8.90;99.90;;;;;;807360;177;26590;-79
2024/02/22 00:17:12;;;;;;;8.27;3.80;;;8.90;99.90;;;;;;803698;177;26440;-78
2024/02/22 00:19:38;;;;;;;5.60;3.90;;;8.90;99.90;;;;;;806679;176;26431;-78
2024/02/22 00:22:04;;;;;;;5.13;3.80;;;8.90;99.90;;;;;;802012;177;26594;-78
2024/02/22 00:24:31;;;;;;;5.37;4.00;;;8.90;99.90;;;;;;796378;178;26599;-78
2024/02/22 00:26:58;;;;;;;4.90;3.77;;;8.90;99.90;;;;;;799168;177;26464;-78
2024/02/22 00:29:24;;;;;;;5.27;3.70;;;8.90;99.90;;;;;;805532;178;26427;-76
2024/02/22 00:31:51;;;;;;;5.20;3.47;;;8.90;99.90;;;;;;802284;177;26448;-78
2024/02/22 00:34:17;;;;;;;4.77;3.40;;;8.90;99.90;;;;;;809831;176;26514;-79
2024/02/22 00:36:44;;;;;;;5.60;3.80;;;8.90;99.90;;;;;;793578;176;26628;-78
2024/02/22 00:39:11;;;;;;;6.33;3.80;;;9.00;99.90;;;;;;802546;177;26974;-78
2024/02/22 00:41:37;;;;;;;4.40;3.90;;;9.00;99.90;;;;;;794846;178;26451;-78
2024/02/22 00:44:05;;;;;;;5.27;3.77;;;9.00;99.90;;;;;;798998;178;26462;-79
2024/02/22 00:46:31;;;;;;;5.37;3.50;;;9.00;99.90;;;;;;803891;178;26427;-78
2024/02/22 00:48:58;;;;;;;5.23;3.80;;;9.00;99.90;;;;;;806648;177;26460;-79
2024/02/22 00:51:24;;;;;;;8.43;4.67;;;9.00;99.90;;;;;;800510;177;26436;-79
2024/02/22 00:53:51;;;;;;;3.87;3.13;;;9.10;99.90;;;;;;804636;178;26476;-79
2024/02/22 00:56:17;;;;;;;5.23;3.43;;;9.00;99.90;;;;;;796910;178;26973;-79
2024/02/22 00:58:44;;;;;;;3.83;3.43;;;9.00;99.90;;;;;;808565;178;26615;-77
2024/02/22 01:01:11;;;;;;;5.53;3.33;;;9.10;99.90;;;;;;802218;177;26444;-79
2024/02/22 01:03:37;;;;;;;4.30;3.20;;;9.10;99.90;;;;;;805453;178;26624;-79
2024/02/22 01:06:04;;;;;;;4.93;3.07;;;9.10;99.90;;;;;;807450;177;26539;-79
2024/02/22 01:08:31;;;;;;;3.40;2.80;;;9.10;99.90;;;;;;807127;178;26488;-78
2024/02/22 01:10:58;;;;;;;5.17;3.20;;;9.10;99.90;;;;;;801629;177;27075;-78
2024/02/22 01:13:24;;;;;;;5.90;2.90;;;9.10;99.90;;;;;;800517;177;26525;-78
2024/02/22 01:15:51;;;;;;;4.30;2.97;;;9.20;99.90;;;;;;799449;177;28120;-77
2024/02/22 01:18:17;;;;;;;5.43;3.30;;;9.20;99.90;;;;;;802341;177;26513;-79
2024/02/22 01:20:44;;;;;;;3.70;3.00;;;9.30;99.90;;;;;;798116;176;27080;-78
2024/02/22 01:23:10;;;;;;;4.10;2.73;;;9.20;99.90;;;;;;803858;177;26481;-77
2024/02/22 01:25:37;;;;;;;3.83;2.80;;;9.20;99.90;;;;;;808599;177;26476;-79
2024/02/22 01:28:05;;;;;;;5.13;3.27;;;9.30;99.90;;;;;;799909;177;27028;-78
2024/02/22 01:30:31;;;;;;;3.63;2.47;;;9.30;99.90;;;;;;806658;176;26565;-80
2024/02/22 01:32:57;;;;;;;3.57;2.83;;;9.30;99.90;;;;;;799824;176;26512;-78
2024/02/22 01:35:24;;;;;;;4.43;2.37;;;9.30;99.90;;;;;;802403;178;26480;-79
2024/02/22 01:37:50;;;;;;;2.33;1.87;;;9.40;99.90;;;;;;801648;177;26431;-78
2024/02/22 01:40:17;;;;;;;6.20;2.60;;;9.40;99.90;;;;;;801271;177;26457;-78
2024/02/22 01:42:43;;;;;;;2.30;2.10;;;9.40;99.90;;;;;;804394;176;26527;-79
2024/02/22 01:45:10;;;;;;;3.33;1.77;;;9.40;99.90;;;;;;801969;176;26456;-80
2024/02/22 01:47:37;;;;;;;2.10;1.80;;;9.50;99.90;;;;;;804750;176;26452;-80
2024/02/22 01:50:04;;;;;;;2.77;1.90;;;9.50;99.90;;;;;;801228;176;26462;-79
2024/02/22 01:52:30;;;;;;;1.90;1.70;;;9.50;99.90;;;;;;794397;178;26825;-79
2024/02/22 01:54:57;;;;;;;3.20;2.10;;;9.60;99.90;;;;;;806488;177;26539;-78
2024/02/22 01:57:23;;;;;;;1.70;1.60;;;9.60;99.90;;;;;;804182;176;26481;-78
2024/02/22 01:59:50;;;;;;;2.30;1.67;;;9.60;99.90;;;;;;810174;176;26988;-79
2024/02/22 02:02:16;;;;;;;2.20;1.80;;;9.60;99.90;;;;;;806751;176;26446;-79
2024/02/22 02:04:43;;;;;;;3.20;1.73;;;9.60;99.90;;;;;;793219;176;26437;-77
2024/02/22 02:07:10;;;;;;;2.33;1.60;;;9.60;99.90;;;;;;798099;176;27024;-80
2024/02/22 02:09:36;;;;;;;2.73;1.77;;;9.60;99.90;;;;;;804956;176;26455;-78
2024/02/22 02:12:03;;;;;;;2.00;1.80;;;9.60;99.90;;;;;;805715;173;26975;-79
2024/02/22 02:14:30;;;;;;;2.43;2.00;;;9.60;99.90;;;;;;799414;178;26481;-79
2024/02/22 02:16:56;;;;;;;1.60;1.50;;;9.60;99.90;;;;;;805344;176;26444;-79
2024/02/22 02:19:24;;;;;;;2.13;1.50;;;9.60;99.90;;;;;;806226;176;26449;-79
2024/02/22 02:21:55;;;;;;;2.97;1.73;;;9.60;99.90;;;;;;806404;176;27005;-78
2024/02/22 02:24:28;;;;;;;1.73;1.60;;;9.60;99.90;;;;;;805682;177;26582;-78
2024/02/22 02:26:55;;;;;;;1.50;1.40;;;9.60;99.90;;;;;;803163;177;26451;-78
2024/02/22 02:29:21;;;;;;;2.73;1.50;;;9.60;99.90;;;;;;806223;176;27037;-79
2024/02/22 02:31:49;;;;;;;1.57;1.37;;;9.60;99.90;;;;;;802914;177;27662;-78
2024/02/22 02:34:14;;;;;;;2.70;1.43;;;9.60;99.90;;;;;;811113;176;27007;-79
2024/02/22 02:36:41;;;;;;;2.87;1.60;;;9.60;99.90;;;;;;805833;177;26446;-77
2024/02/22 02:39:08;;;;;;;1.60;1.40;;;9.60;99.90;;;;;;801856;176;26996;-79
2024/02/22 02:41:34;;;;;;;2.17;1.50;;;9.60;99.90;;;;;;801327;176;26450;-80
2024/02/22 02:44:01;;;;;;;1.90;1.70;;;9.60;99.90;;;;;;798272;176;26470;-80
2024/02/22 02:46:27;;;;;;;2.70;1.40;;;9.60;99.90;;;;;;803679;176;26436;-77
2024/02/22 02:48:54;;;;;;;3.23;1.30;;;9.60;99.90;;;;;;796172;177;28118;-78
2024/02/22 02:51:20;;;;;;;1.40;1.30;;;9.70;99.90;;;;;;801161;177;26499;-79
2024/02/22 02:53:47;;;;;;;1.40;1.30;;;9.60;99.90;;;;;;799649;176;26499;-78
2024/02/22 02:56:13;;;;;;;3.20;1.37;;;9.60;99.90;;;;;;801807;177;26491;-79
2024/02/22 02:58:40;;;;;;;1.53;1.40;;;9.60;99.90;;;;;;798494;178;26479;-77
2024/02/22 03:01:07;;;;;;;2.17;1.40;;;9.60;99.90;;;;;;801352;177;26454;-80
2024/02/22 03:03:33;;;;;;;2.70;1.40;;;9.60;99.90;;;;;;799757;177;26461;-79
2024/02/22 03:06:00;;;;;;;1.53;1.40;;;9.60;99.90;;;;;;804845;177;26458;-79
2024/02/22 03:08:26;;;;;;;1.90;1.50;;;9.60;99.90;;;;;;807681;178;26434;-78
2024/02/22 03:10:53;;;;;;;1.60;1.40;;;9.60;99.90;;;;;;802146;177;26425;-76
2024/02/22 03:13:21;;;;;;;2.10;1.40;;;9.60;99.90;;;;;;803355;178;26463;-81
2024/02/22 03:15:48;;;;;;;1.00;1.00;;;9.60;99.90;;;;;;802870;174;26451;-80
2024/02/22 03:18:13;;;;;;;3.03;1.40;;;9.60;99.90;;;;;;808716;177;26440;-79
2024/02/22 03:20:41;;;;;;;1.70;1.40;;;9.60;99.90;;;;;;805280;178;26535;-80
2024/02/22 03:23:07;;;;;;;2.40;1.50;;;9.70;99.90;;;;;;809517;177;26455;-77
2024/02/22 03:25:33;;;;;;;2.30;1.50;;;9.60;99.90;;;;;;800499;177;26484;-78
2024/02/22 03:27:59;;;;;;;2.40;1.43;;;9.70;99.90;;;;;;796394;178;26431;-79
2024/02/22 03:30:26;;;;;;;2.27;1.73;;;9.60;99.90;;;;;;803946;178;26497;-79
2024/02/22 03:32:52;;;;;;;3.10;1.80;;;9.70;99.90;;;;;;798234;178;27052;-79
2024/02/22 03:35:19;;;;;;;3.67;1.87;;;9.60;99.90;;;;;;806251;178;26444;-79
2024/02/22 03:37:46;;;;;;;1.90;1.40;;;9.70;99.90;;;;;;798807;177;27019;-77
2024/02/22 03:40:12;;;;;;;3.40;2.20;;;9.70;99.90;;;;;;802992;176;26468;-77
2024/02/22 03:42:39;;;;;;;4.73;2.03;;;9.60;99.90;;;;;;808068;177;26622;-78
2024/02/22 03:45:06;;;;;;;3.17;1.67;;;9.70;99.90;;;;;;802709;177;26604;-78
2024/02/22 03:47:33;;;;;;;3.40;2.00;;;9.70;99.90;;;;;;804174;176;26483;-79
2024/02/22 03:50:00;;;;;;;2.93;1.70;;;9.70;99.90;;;;;;801423;177;27004;-78
2024/02/22 03:52:26;;;;;;;2.13;1.67;;;9.70;99.90;;;;;;802476;177;26448;-79
2024/02/22 03:54:53;;;;;;;2.33;1.80;;;9.70;99.90;;;;;;801967;177;26485;-78
2024/02/22 03:57:20;;;;;;;2.87;2.13;;;9.70;99.90;;;;;;802060;176;26555;-80
2024/02/22 03:59:46;;;;;;;1.60;1.50;;;9.70;99.90;;;;;;804991;174;26437;-80
2024/02/22 04:02:13;;;;;;;3.57;2.50;;;9.70;99.90;;;;;;810273;176;26443;-79
2024/02/22 04:04:39;;;;;;;2.40;1.40;;;9.80;99.90;;;;;;809621;176;26589;-78
2024/02/22 04:07:07;;;;;;;3.40;2.27;;;9.80;99.90;;;;;;808049;177;26454;-79
2024/02/22 04:09:33;;;;;;;2.80;1.80;;;9.80;99.90;;;;;;801168;176;27022;-78
2024/02/22 04:11:59;;;;;;;3.23;1.80;;;9.80;99.90;;;;;;795961;177;26478;-78
2024/02/22 04:14:26;;;;;;;1.90;1.43;;;9.80;99.90;;;;;;795118;178;27072;-78
2024/02/22 04:16:52;;;;;;;3.50;1.93;;;9.80;99.90;;;;;;800397;177;26474;-78
2024/02/22 04:19:20;;;;;;;2.97;2.60;;;9.80;99.90;;;;;;799163;178;26998;-77
2024/02/22 04:21:47;;;;;;;2.13;1.93;;;9.80;99.90;;;;;;801417;178;26429;-79
2024/02/22 04:24:13;;;;;;;2.50;2.30;;;9.80;99.90;;;;;;803980;175;27072;-78
2024/02/22 04:26:45;;;;;;;2.00;1.80;;;9.80;99.90;;;;;;803583;177;26449;-78
2024/02/22 04:29:12;;;;;;;1.77;1.67;;;9.80;99.90;;;;;;801902;177;26999;-79
2024/02/22 04:31:39;;;;;;;2.20;1.83;;;9.80;99.90;;;;;;785428;181;26635;-79
2024/02/22 04:34:05;;;;;;;2.30;1.90;;;9.80;99.90;;;;;;783927;181;27072;-77
2024/02/22 04:36:32;;;;;;;1.90;1.70;;;9.80;99.90;;;;;;792754;178;26454;-78
2024/02/22 04:38:58;;;;;;;4.57;2.30;;;9.80;99.90;;;;;;803885;177;27261;-78
2024/02/22 04:41:25;;;;;;;3.37;2.23;;;9.80;99.90;;;;;;795936;178;26495;-78
2024/02/22 04:43:52;;;;;;;2.33;1.73;;;9.80;99.90;;;;;;798584;178;26490;-78
2024/02/22 04:46:19;;;;;;;1.70;1.60;;;9.80;99.90;;;;;;798899;178;26468;-78
2024/02/22 04:48:45;;;;;;;3.47;2.50;;;9.70;99.90;;;;;;798019;177;26460;-78
2024/02/22 04:51:12;;;;;;;3.43;2.47;;;9.80;99.90;;;;;;807298;177;26976;-78
2024/02/22 04:53:39;;;;;;;3.37;2.10;;;9.80;99.90;;;;;;800979;177;26456;-78
2024/02/22 04:56:05;;;;;;;3.07;2.20;;;9.80;99.90;;;;;;796596;176;27027;-78
2024/02/22 04:58:32;;;;;;;3.47;2.17;;;9.80;99.90;;;;;;806338;176;26448;-78
2024/02/22 05:00:59;;;;;;;4.70;2.43;;;9.80;99.90;;;;;;802937;177;26450;-79
2024/02/22 05:03:25;;;;;;;2.57;1.70;;;9.80;99.90;;;;;;810938;176;26468;-79
2024/02/22 05:05:52;;;;;;;3.87;2.10;;;9.90;99.90;;;;;;807532;177;26440;-77
2024/02/22 05:08:18;;;;;;;5.17;2.50;;;9.90;99.90;;;;;;803310;176;26458;-77
2024/02/22 05:10:45;;;;;;;2.53;2.23;;;9.80;99.90;;;;;;798587;177;26445;-77
2024/02/22 05:13:12;;;;;;;3.10;2.00;;;9.80;99.90;;;;;;795518;176;26465;-78
2024/02/22 05:15:38;;;;;;;3.27;2.60;;;9.70;99.90;;;;;;792545;178;26521;-78
2024/02/22 05:18:05;;;;;;;4.10;2.30;;;9.70;99.90;;;;;;798664;177;26475;-78
2024/02/22 05:20:34;;;;;;;2.73;2.00;;;9.70;99.90;;;;;;797058;177;26586;-78
2024/02/22 05:22:58;;;;;;;6.57;2.30;;;9.70;99.90;;;;;;800273;177;26444;-75
2024/02/22 05:25:26;;;;;;;2.77;1.70;;;9.70;99.90;;;;;;798992;178;27090;-77
2024/02/22 05:27:52;;;;;;;2.10;1.83;;;9.80;99.90;;;;;;803993;178;26508;-77
2024/02/22 05:30:19;;;;;;;4.93;2.20;;;9.80;99.90;;;;;;800599;177;26505;-76
2024/02/22 05:32:45;;;;;;;2.37;1.80;;;9.80;99.90;;;;;;799180;177;26464;-75
2024/02/22 05:35:13;;;;;;;2.90;2.27;;;9.80;99.90;;;;;;793478;177;26512;-73
2024/02/22 05:37:39;;;;;;;3.07;2.10;;;9.80;99.90;;;;;;794914;174;26536;-79
2024/02/22 05:40:08;;;;;;;4.53;2.20;;;9.70;99.90;;;;;;778785;184;26498;-82
2024/02/22 05:42:35;;;;;;;3.93;1.90;;;9.70;99.90;;;;;;777777;184;26493;-82
2024/02/22 05:45:02;;;;;;;2.43;2.20;;;9.70;99.90;;;;;;778304;184;26493;-81
2024/02/22 05:47:28;;;;;;;2.93;2.17;;;9.70;99.90;;;;;;774506;184;27175;-82
2024/02/22 05:49:55;;;;;;;2.10;1.90;;;9.70;99.90;;;;;;766958;187;26506;-80
2024/02/22 05:52:21;;;;;;;2.50;1.80;;;9.60;99.90;;;;;;764570;187;27090;-80
2024/02/22 05:54:48;;;;;;;2.53;1.80;;;9.60;99.90;;;;;;760304;185;26498;-81
2024/02/22 05:57:14;;;;;;;4.13;1.83;;;9.60;99.90;;;;;;766642;187;26524;-81
2024/02/22 05:59:41;;;;;;;2.90;2.17;;;9.60;99.90;;;;;;762218;186;26517;-81
2024/02/22 06:02:08;;;;;;;2.57;1.93;;;9.60;99.90;;;;;;768138;186;26516;-80
2024/02/22 06:04:34;;;;;;;3.50;2.50;;;9.60;99.90;;;;;;764699;187;26545;-79
2024/02/22 06:07:01;;;;;;;2.57;1.97;;;9.60;99.90;;;;;;764220;187;27714;-81
2024/02/22 06:09:27;;;;;;;4.30;2.10;;;9.60;99.90;;;;;;766041;187;26554;-80
2024/02/22 06:11:54;;;;;;;3.00;1.90;;;9.60;99.90;;;;;;766233;186;26862;-80
2024/02/22 06:14:21;;;;;;;3.27;1.60;;;9.60;99.90;;;;;;764296;186;26522;-80
2024/02/22 06:16:47;;;;;;;2.27;2.00;;;9.60;99.90;;;;;;768970;187;26503;-79
2024/02/22 06:19:14;;;;;;;2.20;2.00;;;9.70;99.90;;;;;;764560;187;26508;-80
2024/02/22 06:21:40;;;;;;;3.80;2.10;;;9.60;99.90;;;;;;762971;187;26541;-80
2024/02/22 06:24:08;;;;;;;3.60;2.10;;;9.60;99.90;;;;;;764541;187;26521;-80
2024/02/22 06:26:34;;;;;;;4.47;3.10;;;9.60;99.90;;;;;;762199;187;26517;-79
2024/02/22 06:29:00;;;;;;;2.93;2.10;;;9.70;99.90;;;;;;766894;187;26530;-82
2024/02/22 06:31:27;;;;;;;2.43;2.00;;;9.70;99.90;;;;;;764776;187;26500;-80
2024/02/22 06:33:53;;;;;;;2.13;1.73;;;9.70;99.90;;;;;;765728;186;26493;-82
2024/02/22 06:36:20;;;;;;;2.10;1.80;;;9.70;99.90;;;;;;766539;186;27172;-81
2024/02/22 06:38:47;;;;;;;2.83;2.10;;;9.70;99.90;;;;;;766459;187;26505;-81
2024/02/22 06:41:15;;;;;;;2.70;2.27;;;9.80;99.90;;;;;;767958;187;26522;-80
2024/02/22 06:43:40;;;;;;;4.80;3.07;;;9.90;99.90;;;;;;766319;184;26501;-83
2024/02/22 06:46:06;;;;;;;4.90;2.93;;;10.00;99.90;;;;;;768518;187;26551;-81
2024/02/22 06:48:33;;;;;;;3.67;2.60;;;10.00;99.90;;;;;;762733;186;26537;-84
2024/02/22 06:51:00;;;;;;;5.37;2.50;;;10.00;99.90;;;;;;765378;187;26514;-80
2024/02/22 06:53:26;;;;;;;3.80;2.90;;;10.10;99.90;;;;;;766265;187;26496;-80
2024/02/22 06:55:53;;;;;;;5.93;2.63;;;10.00;99.90;;;;;;761979;187;26583;-79
2024/02/22 06:58:19;;;;;;;2.33;2.07;;;10.00;99.90;;;;;;763891;187;26591;-78
2024/02/22 07:00:46;;;;;;;2.00;1.80;;;10.00;99.90;;;;;;760064;187;26558;-79
2024/02/22 07:03:13;;;;;;;2.80;1.90;;;10.00;99.90;;;;;;757989;187;26582;-78
2024/02/22 07:05:39;;;;;;;6.37;3.50;;;10.00;99.90;;;;;;760275;187;26495;-79
2024/02/22 07:08:06;;;;;;;3.67;2.87;;;10.10;99.90;;;;;;760180;187;26546;-79
2024/02/22 07:10:32;;;;;;;3.67;2.40;;;10.10;99.90;;;;;;762935;187;26541;-80
2024/02/22 07:12:59;;;;;;;7.80;3.37;;;10.00;99.90;;;;;;765850;186;26496;-79
2024/02/22 07:15:26;;;;;;;6.87;2.60;;;10.10;99.90;;;;;;762645;187;26569;-79
2024/02/22 07:17:52;;;;;;;7.30;2.17;;;10.10;99.90;;;;;;763926;187;26544;-80
2024/02/22 07:20:19;;;;;;;2.47;1.80;;;10.10;99.90;;;;;;767068;187;26509;-81
2024/02/22 07:22:47;;;;;;;4.10;2.43;;;10.10;99.90;;;;;;766138;187;26496;-80
2024/02/22 07:25:12;;;;;;;3.43;2.10;;;10.10;99.90;;;;;;764342;187;26491;-80
2024/02/22 07:27:40;;;;;;;3.93;2.50;;;10.10;99.90;;;;;;764893;187;26878;-78
2024/02/22 07:30:07;;;;;;;3.10;2.53;;;10.10;99.90;;;;;;764641;187;26491;-79
2024/02/22 07:32:33;;;;;;;5.53;2.70;;;10.10;99.90;;;;;;763593;187;26500;-79
2024/02/22 07:35:00;;;;;;;4.90;2.83;;;10.10;99.90;;;;;;766262;187;26525;-80
2024/02/22 07:37:27;;;;;;;6.47;3.70;;;10.10;99.90;;;;;;764297;187;26669;-80
2024/02/22 07:39:54;;;;;;;4.90;2.73;;;10.20;99.90;;;;;;762386;186;27075;-79
2024/02/22 07:42:20;;;;;;;11.33;7.10;;;10.10;99.90;;;;;;765145;187;26532;-80
2024/02/22 07:44:46;;;;;;;8.33;4.37;;;10.20;99.90;;;;;;764051;187;26517;-81
2024/02/22 07:47:13;;;;;;;7.10;2.80;;;10.20;99.90;;;;;;764827;187;26513;-80
2024/02/22 07:49:40;;;;;;;6.03;2.47;;;10.20;99.90;;;;;;765429;186;26540;-81
2024/02/22 07:52:06;;;;;;;3.10;2.67;;;10.20;99.90;;;;;;764169;187;26587;-81
2024/02/22 07:54:33;;;;;;;3.67;2.77;;;10.20;99.90;;;;;;764402;187;26557;-82
2024/02/22 07:56:59;;;;;;;4.40;2.47;;;10.20;99.90;;;;;;764666;186;26468;-82
2024/02/22 07:59:26;;;;;;;3.70;2.40;;;10.20;99.90;;;;;;764851;184;27020;-80
2024/02/22 08:01:53;;;;;;;4.40;2.30;;;10.30;99.90;;;;;;762298;187;26507;-79
2024/02/22 08:04:19;;;;;;;4.53;2.30;;;10.30;99.90;;;;;;765539;187;26499;-80
2024/02/22 08:06:46;;;;;;;2.90;1.77;;;10.30;99.90;;;;;;764300;187;26498;-79
2024/02/22 08:09:12;;;;;;;3.53;2.30;;;10.40;99.90;;;;;;760016;187;26506;-78
2024/02/22 08:11:39;;;;;;;3.10;2.47;;;10.40;99.90;;;;;;761860;187;27117;-79
2024/02/22 08:14:06;;;;;;;2.97;2.17;;;10.40;99.90;;;;;;761974;187;26486;-81
2024/02/22 08:16:32;;;;;;;3.07;2.30;;;10.50;99.90;;;;;;763677;187;26553;-80
2024/02/22 08:18:59;;;;;;;2.30;1.90;;;10.60;99.90;;;;;;766238;187;26558;-78
2024/02/22 08:21:25;;;;;;;2.60;2.40;;;10.60;99.90;;;;;;764740;187;27148;-79
2024/02/22 08:23:55;;;;;;;3.47;2.30;;;10.60;99.90;;;;;;764263;186;26588;-78
2024/02/22 08:26:19;;;;;;;3.30;2.57;;;10.70;99.90;;;;;;762988;186;27068;-79
2024/02/22 08:28:45;;;;;;;3.07;2.77;;;10.70;99.90;;;;;;767631;187;26585;-80
2024/02/22 08:31:12;;;;;;;2.87;2.40;;;10.60;99.90;;;;;;767008;186;27082;-80
2024/02/22 08:33:38;;;;;;;4.80;3.10;;;10.70;99.90;;;;;;763469;187;26517;-79
2024/02/22 08:36:06;;;;;;;3.93;2.97;;;10.70;99.90;;;;;;763555;187;27040;-82
2024/02/22 08:38:32;;;;;;;3.43;2.40;;;10.70;99.90;;;;;;766056;187;27123;-81
2024/02/22 08:40:59;;;;;;;4.23;2.33;;;10.70;99.90;;;;;;766348;187;26496;-79
2024/02/22 08:43:25;;;;;;;2.57;2.27;;;10.70;99.90;;;;;;762754;187;26515;-80
2024/02/22 08:45:52;;;;;;;4.43;3.30;;;10.60;99.90;;;;;;767769;186;26511;-80
2024/02/22 08:48:18;;;;;;;3.67;2.63;;;10.70;99.90;;;;;;765961;187;26534;-77
2024/02/22 08:50:45;;;;;;;6.50;4.17;;;10.70;99.90;;;;;;765664;187;26500;-80
2024/02/22 08:53:11;;;;;;;4.33;2.83;;;10.70;99.90;;;;;;767519;187;26543;-80
2024/02/22 08:55:38;;;;;;;2.10;1.90;;;10.70;99.90;;;;;;768656;187;26586;-80
2024/02/22 08:58:05;;;;;;;3.73;2.17;;;10.80;99.90;;;;;;766099;187;26528;-79
2024/02/22 09:00:31;;;;;;;2.23;1.73;;;10.80;99.90;;;;;;763135;185;27069;-79
2024/02/22 09:02:58;;;;;;;3.97;1.97;;;10.80;99.90;;;;;;766356;186;26529;-78
2024/02/22 09:05:26;;;;;;;4.97;2.57;;;10.90;99.90;;;;;;765129;187;27131;-78
2024/02/22 09:07:51;;;;;;;3.30;2.27;;;11.00;99.90;;;;;;763991;187;26503;-81
2024/02/22 09:10:17;;;;;;;3.47;2.00;;;11.10;99.90;;;;;;765012;187;26539;-81
2024/02/22 09:12:44;;;;;;;3.57;2.30;;;11.20;99.90;;;;;;763700;187;26515;-80
2024/02/22 09:15:11;;;;;;;6.20;2.90;;;11.30;99.90;;;;;;760805;187;26664;-78
2024/02/22 09:17:38;;;;;;;4.37;2.73;;;11.30;99.90;;;;;;759801;187;26580;-81
2024/02/22 09:20:05;;;;;;;4.53;2.57;;;11.30;99.90;;;;;;762026;186;26500;-79
2024/02/22 09:22:31;;;;;;;6.33;2.80;;;11.40;99.90;;;;;;760133;187;26499;-80
2024/02/22 09:24:58;;;;;;;3.23;2.57;;;11.60;99.90;;;;;;765959;184;26520;-80
2024/02/22 09:27:25;;;;;;;4.03;3.07;;;11.70;99.90;;;;;;760981;187;26536;-80
2024/02/22 09:29:53;;;;;;;4.43;2.73;;;11.60;99.90;;;;;;761198;187;26522;-79
2024/02/22 09:32:18;;;;;;;6.23;2.90;;;11.40;99.90;;;;;;765010;187;26495;-80
2024/02/22 09:34:44;;;;;;;5.97;2.60;;;11.40;99.90;;;;;;767035;186;26511;-81
2024/02/22 09:37:11;;;;;;;4.50;3.23;;;11.40;99.90;;;;;;767157;186;26505;-81
2024/02/22 09:39:38;;;;;;;4.57;2.67;;;11.60;99.90;;;;;;765040;187;26537;-82
2024/02/22 09:42:04;;;;;;;5.80;2.67;;;11.80;99.90;;;;;;765098;187;26523;-78
2024/02/22 09:44:32;;;;;;;5.30;2.40;;;11.60;99.90;;;;;;766238;187;26551;-81
2024/02/22 09:46:58;;;;;;;4.07;2.67;;;11.60;99.90;;;;;;762642;187;26657;-80
2024/02/22 09:49:24;;;;;;;2.90;2.37;;;11.60;99.90;;;;;;764889;186;26495;-81
2024/02/22 09:51:51;;;;;;;4.93;2.80;;;11.60;99.90;;;;;;767628;187;26516;-82
2024/02/22 09:54:17;;;;;;;6.63;3.40;;;11.80;99.90;;;;;;760552;187;26527;-80
2024/02/22 09:56:44;;;;;;;7.03;2.37;;;12.00;99.90;;;;;;764698;187;26491;-81
2024/02/22 09:59:13;;;;;;;5.07;2.57;;;12.10;99.90;;;;;;765217;184;26527;-79
2024/02/22 10:01:40;;;;;;;4.27;2.50;;;12.10;99.90;;;;;;762634;187;26511;-79
2024/02/22 10:04:11;;;;;;;2.80;2.20;;;12.20;99.90;;;;;;764544;187;26530;-79
2024/02/22 10:06:38;;;;;;;3.47;2.10;;;12.30;99.90;;;;;;763235;187;26494;-80
2024/02/22 10:09:06;;;;;;;2.90;2.30;;;12.40;99.90;;;;;;765332;182;26531;-81
2024/02/22 10:11:31;;;;;;;2.17;1.87;;;12.30;99.90;;;;;;763788;180;26536;-81
2024/02/22 10:13:59;;;;;;;5.23;2.10;;;12.30;99.90;;;;;;765584;179;26484;-77
2024/02/22 10:16:25;;;;;;;2.73;1.80;;;12.30;99.90;;;;;;764800;187;26542;-80
2024/02/22 10:18:52;;;;;;;2.80;1.93;;;12.50;99.90;;;;;;765226;187;26565;-79
2024/02/22 10:21:18;;;;;;;5.50;2.13;;;12.40;99.90;;;;;;765531;186;27066;-79
2024/02/22 10:23:46;;;;;;;3.60;2.03;;;12.50;99.90;;;;;;759482;186;26490;-80
2024/02/22 10:26:12;;;;;;;3.03;1.83;;;12.80;99.90;;;;;;762675;187;26528;-77
2024/02/22 10:28:39;;;;;;;4.23;2.20;;;13.00;99.90;;;;;;765210;187;26552;-79
2024/02/22 10:31:06;;;;;;;3.20;2.27;;;13.00;99.90;;;;;;765514;187;26491;-78
2024/02/22 10:33:33;;;;;;;3.93;1.90;;;13.00;99.90;;;;;;760338;187;26514;-79
2024/02/22 10:35:59;;;;;;;3.63;2.20;;;13.10;99.90;;;;;;762284;187;26546;-77
2024/02/22 10:38:27;;;;;;;11.83;5.70;;;13.10;99.90;;;;;;761427;187;26592;-80
2024/02/22 10:40:54;;;;;;;5.00;3.10;;;13.10;99.90;;;;;;762176;187;26502;-79
2024/02/22 10:43:20;;;;;;;5.00;2.37;;;13.00;99.90;;;;;;762716;187;26516;-80
2024/02/22 10:45:47;;;;;;;2.80;2.20;;;13.10;99.90;;;;;;763189;185;26670;-80
2024/02/22 10:48:13;;;;;;;8.70;2.50;;;13.10;99.90;;;;;;765250;186;26513;-79
2024/02/22 10:50:41;;;;;;;9.77;2.83;;;13.20;99.90;;;;;;761988;187;26531;-78
2024/02/22 10:53:07;;;;;;;4.93;2.10;;;13.40;99.90;;;;;;762665;187;26508;-79
2024/02/22 10:55:33;;;;;;;5.43;2.00;;;13.70;99.90;;;;;;764026;187;26564;-78
2024/02/22 10:58:00;;;;;;;4.03;2.13;;;13.60;99.90;;;;;;765699;187;26683;-80
2024/02/22 11:00:26;;;;;;;6.97;2.20;;;13.60;99.90;;;;;;765687;187;26530;-80
2024/02/22 11:02:53;;;;;;;2.10;1.87;;;13.70;99.90;;;;;;763798;187;26500;-80
2024/02/22 11:05:20;;;;;;;4.23;2.47;;;13.70;99.90;;;;;;767753;187;26492;-77
2024/02/22 11:07:49;;;;;;;3.40;2.47;;;13.70;99.90;;;;;;764080;186;26518;-79
2024/02/22 11:10:16;;;;;;;2.40;2.00;;;13.80;99.90;;;;;;761852;187;26533;-79
2024/02/22 11:12:45;;;;;;;2.90;2.10;;;13.90;99.90;;;;;;766222;187;26493;-81
2024/02/22 11:15:12;;;;;;;5.97;3.50;;;14.00;99.90;;;;;;763881;187;26512;-81
2024/02/22 11:17:39;;;;;;;3.87;2.53;;;14.10;99.90;;;;;;765961;187;26566;-79
2024/02/22 11:20:06;;;;;;;2.70;2.33;;;14.10;99.90;;;;;;765227;187;26517;-80
2024/02/22 11:22:33;;;;;;;3.40;2.23;;;14.00;99.90;;;;;;763960;187;26541;-80
2024/02/22 11:25:00;;;;;;;2.50;1.60;;;13.90;99.90;;;;;;765818;187;26482;-79
2024/02/22 11:27:26;;;;;;;2.47;1.80;;;13.90;99.90;;;;;;767652;186;27080;-77
2024/02/22 11:29:53;;;;;;;3.93;1.77;;;13.90;99.90;;;;;;765417;187;26518;-77
2024/02/22 11:32:20;;;;;;;8.43;6.30;;;14.00;99.90;;;;;;766994;187;27074;-78
2024/02/22 11:34:46;;;;;;;2.17;1.77;;;13.90;99.90;;;;;;766298;186;26525;-81
2024/02/22 11:37:16;;;;;;;1.50;1.37;;;14.10;99.90;;;;;;762834;187;26519;-79
2024/02/22 11:39:39;;;;;;;1.97;1.30;;;14.10;99.90;;;;;;827795;169;26441;-78
2024/02/22 11:42:06;;;;;;;1.80;1.30;;;14.20;99.90;;;;;;845132;169;26392;-77
2024/02/22 11:44:33;;;;;;;1.30;1.20;;;14.20;99.90;;;;;;839277;169;26407;-77
2024/02/22 11:47:00;;;;;;;1.37;1.27;;;14.20;99.90;;;;;;844788;169;26545;-77
2024/02/22 11:49:26;;;;;;;4.03;2.40;;;14.20;99.90;;;;;;825882;170;28793;-78
2024/02/22 11:51:53;;;;;;;1.30;1.20;;;14.20;99.90;;;;;;824223;172;26405;-78
2024/02/22 11:54:22;;;;;;;1.57;1.10;;;14.20;99.90;;;;;;823110;172;26565;-77
2024/02/22 11:56:46;;;;;;;2.70;1.57;;;14.10;99.90;;;;;;824897;171;26967;-76
2024/02/22 11:59:13;;;;;;;3.30;1.60;;;14.10;99.90;;;;;;826335;171;27641;-74
2024/02/22 12:01:39;;;;;;;4.27;2.63;;;14.00;99.90;;;;;;827640;172;26399;-76
2024/02/22 12:04:06;;;;;;;2.53;1.70;;;14.00;99.90;;;;;;830039;172;26528;-78
2024/02/22 12:06:33;;;;;;;2.20;1.67;;;14.00;99.90;;;;;;821777;173;26404;-78
2024/02/22 12:08:59;;;;;;;1.33;1.23;;;14.00;99.90;;;;;;828120;172;26426;-78
2024/02/22 12:11:26;;;;;;;1.50;1.40;;;13.90;99.90;;;;;;828077;172;26552;-78
2024/02/22 12:13:57;;;;;;;2.57;1.70;;;13.90;99.90;;;;;;823447;172;26549;-78
2024/02/22 12:16:24;;;;;;;2.07;1.57;;;13.90;99.90;;;;;;823602;173;26948;-78
2024/02/22 12:18:50;;;;;;;4.13;1.60;;;14.00;99.90;;;;;;821596;173;26421;-78
2024/02/22 12:21:17;;;;;;;6.17;4.10;;;14.00;99.90;;;;;;823579;173;27059;-78
2024/02/22 12:23:43;;;;;;;5.27;3.20;;;14.00;99.90;;;;;;820610;172;26419;-76
2024/02/22 12:26:10;;;;;;;2.30;2.10;;;14.00;99.90;;;;;;828700;171;26463;-78
2024/02/22 12:28:37;;;;;;;2.30;1.70;;;14.10;99.90;;;;;;827064;171;26467;-78
2024/02/22 12:31:03;;;;;;;1.97;1.73;;;14.10;99.90;;;;;;823747;172;26413;-78
2024/02/22 12:33:30;;;;;;;3.27;1.60;;;14.10;99.90;;;;;;821759;172;26429;-78
2024/02/22 12:35:57;;;;;;;3.67;1.77;;;14.10;99.90;;;;;;823841;172;26983;-78
2024/02/22 12:38:23;;;;;;;2.50;1.70;;;14.20;99.90;;;;;;826988;172;26442;-78
2024/02/22 12:40:50;;;;;;;2.50;1.40;;;14.10;99.90;;;;;;826468;172;27993;-76
2024/02/22 12:43:17;;;;;;;2.57;1.40;;;14.20;99.90;;;;;;826178;172;26394;-77
2024/02/22 12:45:43;;;;;;;3.13;1.40;;;14.20;99.90;;;;;;826297;172;26431;-76
2024/02/22 12:48:10;;;;;;;2.40;1.40;;;14.30;99.90;;;;;;825460;172;26457;-78